This is the latest recevied weather packets stored in our database for station/object K3HM. If no packets are shown the sender has not sent any weather packets the latest 10 day(s).
| Time | Temp. | Humidity | Pressure | Rain* | Wind** | Luminosity | Snow |
|---|---|---|---|---|---|---|---|
| 1777573038 | 6.67° C | 90% | 1011.6 hPa | 0 mm | - | 214 W/m² | - |
| 1777572735 | 6.67° C | 90% | 1011.7 hPa | 0 mm | - | 141 W/m² | - |
| 1777572429 | 6.67° C | 89% | 1011.5 hPa | 0 mm | - | 60 W/m² | - |
| 1777572126 | 7.22° C | 88% | 1011.6 hPa | 0 mm | - | 150 W/m² | - |
| 1777571821 | 6.67° C | 90% | 1011.5 hPa | 0 mm | - | 305 W/m² | - |
| 1777571517 | 7.22° C | 90% | 1011.4 hPa | 0 mm | - | 141 W/m² | - |
| 1777571214 | 7.22° C | 90% | 1011.3 hPa | 0 mm | - | 312 W/m² | - |
| 1777570909 | 7.22° C | 91% | 1011.3 hPa | 0 mm | - | 351 W/m² | - |
| 1777570606 | 7.78° C | 93% | 1011.4 hPa | 0 mm | - | 228 W/m² | - |
| 1777570303 | 6.67° C | 93% | 1011.6 hPa | 0 mm | - | 998 W/m² | - |
| 1777569998 | 6.67° C | 91% | 1011.6 hPa | 0 mm | - | 192 W/m² | - |
| 1777569694 | 8.33° C | 87% | 1011.5 hPa | 0 mm | - | 67 W/m² | - |
| 1777569390 | 8.33° C | 87% | 1011.5 hPa | 0 mm | - | 179 W/m² | - |
| 1777569087 | 7.78° C | 88% | 1011.3 hPa | 0 mm | - | 335 W/m² | - |
| 1777568783 | 7.78° C | 88% | 1011.5 hPa | 0 mm | - | 200 W/m² | - |
| 1777568482 | 7.78° C | 90% | 1011.6 hPa | 0 mm | - | 266 W/m² | - |
| 1777568177 | 7.22° C | 91% | 1011.4 hPa | 0 mm | - | 571 W/m² | - |
| 1777567875 | 7.22° C | 92% | 1011.4 hPa | 0 mm | - | 147 W/m² | - |
| 1777567571 | 7.22° C | 93% | 1011.5 hPa | 0 mm | - | 295 W/m² | - |
| 1777567268 | 7.22° C | 93% | 1011.6 hPa | 1.78 mm | - | 257 W/m² | - |
| 1777566967 | 6.67° C | 92% | 1011.5 hPa | 1.78 mm | - | 258 W/m² | - |
| 1777566664 | 6.67° C | 92% | 1011.9 hPa | 0 mm | - | 136 W/m² | - |
| 1777566361 | 7.78° C | 89% | 1011.6 hPa | 0 mm | - | 117 W/m² | - |
| 1777566058 | 8.89° C | 84% | 1011.6 hPa | 0 mm | - | 191 W/m² | - |
| 1777565754 | 8.89° C | 83% | 1011.5 hPa | 0 mm | - | 427 W/m² | - |
* Rain latest hour (hover to see other rain measurements)
** Current wind speed in m/s (hover to see current wind gust speed)